sensor_id;sensor_type;location;lat;lon;timestamp;P1;durP1;ratioP1;P2;durP2;ratioP2
71183;SDS011;58887;51.980;4.464;2022-08-01T00:02:10;4.90;;;4.77;;
71183;SDS011;58887;51.980;4.464;2022-08-01T00:04:35;5.21;;;5.08;;
71183;SDS011;58887;51.980;4.464;2022-08-01T00:07:00;4.90;;;4.76;;
71183;SDS011;58887;51.980;4.464;2022-08-01T00:09:26;5.19;;;5.06;;
71183;SDS011;58887;51.980;4.464;2022-08-01T00:11:51;4.92;;;4.86;;
71183;SDS011;58887;51.980;4.464;2022-08-01T00:14:18;4.93;;;4.85;;
71183;SDS011;58887;51.980;4.464;2022-08-01T00:16:43;4.84;;;4.77;;
71183;SDS011;58887;51.980;4.464;2022-08-01T00:19:09;4.53;;;4.42;;
71183;SDS011;58887;51.980;4.464;2022-08-01T00:21:34;4.77;;;4.68;;
71183;SDS011;58887;51.980;4.464;2022-08-01T00:23:59;4.99;;;4.89;;
71183;SDS011;58887;51.980;4.464;2022-08-01T00:26:25;4.76;;;4.72;;
71183;SDS011;58887;51.980;4.464;2022-08-01T00:28:50;5.14;;;5.10;;
71183;SDS011;58887;51.980;4.464;2022-08-01T00:31:16;5.25;;;5.22;;
71183;SDS011;58887;51.980;4.464;2022-08-01T00:33:41;5.26;;;5.21;;
71183;SDS011;58887;51.980;4.464;2022-08-01T00:36:07;5.37;;;5.31;;
71183;SDS011;58887;51.980;4.464;2022-08-01T00:38:32;5.64;;;5.58;;
71183;SDS011;58887;51.980;4.464;2022-08-01T00:40:58;5.44;;;5.40;;
71183;SDS011;58887;51.980;4.464;2022-08-01T00:43:23;5.90;;;5.84;;
71183;SDS011;58887;51.980;4.464;2022-08-01T00:45:49;5.81;;;5.75;;
71183;SDS011;58887;51.980;4.464;2022-08-01T00:48:14;5.50;;;5.43;;
71183;SDS011;58887;51.980;4.464;2022-08-01T00:50:40;5.32;;;5.25;;
71183;SDS011;58887;51.980;4.464;2022-08-01T00:53:06;5.28;;;5.22;;
71183;SDS011;58887;51.980;4.464;2022-08-01T00:55:32;5.50;;;5.47;;
71183;SDS011;58887;51.980;4.464;2022-08-01T00:57:58;5.26;;;5.17;;
71183;SDS011;58887;51.980;4.464;2022-08-01T01:00:24;5.26;;;5.21;;
71183;SDS011;58887;51.980;4.464;2022-08-01T01:02:50;4.82;;;4.74;;
71183;SDS011;58887;51.980;4.464;2022-08-01T01:05:16;3.33;;;3.26;;
71183;SDS011;58887;51.980;4.464;2022-08-01T01:07:50;2.43;;;2.38;;
71183;SDS011;58887;51.980;4.464;2022-08-01T01:10:25;2.06;;;2.04;;
71183;SDS011;58887;51.980;4.464;2022-08-01T01:13:13;1.96;;;1.94;;
71183;SDS011;58887;51.980;4.464;2022-08-01T01:21:00;1.74;;;1.73;;
71183;SDS011;58887;51.980;4.464;2022-08-01T01:24:03;1.75;;;1.74;;
71183;SDS011;58887;51.980;4.464;2022-08-01T01:26:45;1.90;;;1.90;;
71183;SDS011;58887;51.980;4.464;2022-08-01T01:32:13;2.04;;;2.04;;
71183;SDS011;58887;51.980;4.464;2022-08-01T01:34:42;1.86;;;1.86;;
71183;SDS011;58887;51.980;4.464;2022-08-01T01:37:11;2.08;;;2.08;;
71183;SDS011;58887;51.980;4.464;2022-08-01T01:39:41;2.12;;;2.12;;
71183;SDS011;58887;51.980;4.464;2022-08-01T01:42:08;2.19;;;2.19;;
71183;SDS011;58887;51.980;4.464;2022-08-01T01:44:35;2.26;;;2.26;;
71183;SDS011;58887;51.980;4.464;2022-08-01T01:47:02;2.29;;;2.29;;
71183;SDS011;58887;51.980;4.464;2022-08-01T01:49:30;2.10;;;2.10;;
71183;SDS011;58887;51.980;4.464;2022-08-01T01:51:58;2.12;;;2.12;;
71183;SDS011;58887;51.980;4.464;2022-08-01T01:54:33;2.12;;;2.12;;
71183;SDS011;58887;51.980;4.464;2022-08-01T01:57:02;2.30;;;2.30;;
71183;SDS011;58887;51.980;4.464;2022-08-01T01:59:31;2.24;;;2.24;;
71183;SDS011;58887;51.980;4.464;2022-08-01T02:02:00;2.28;;;2.28;;
71183;SDS011;58887;51.980;4.464;2022-08-01T02:04:28;2.46;;;2.46;;
71183;SDS011;58887;51.980;4.464;2022-08-01T02:06:57;2.30;;;2.30;;
71183;SDS011;58887;51.980;4.464;2022-08-01T02:09:26;2.44;;;2.44;;
71183;SDS011;58887;51.980;4.464;2022-08-01T02:11:53;2.71;;;2.71;;
71183;SDS011;58887;51.980;4.464;2022-08-01T02:14:22;2.56;;;2.56;;
71183;SDS011;58887;51.980;4.464;2022-08-01T02:16:49;2.63;;;2.63;;
71183;SDS011;58887;51.980;4.464;2022-08-01T02:19:18;2.65;;;2.65;;
71183;SDS011;58887;51.980;4.464;2022-08-01T02:21:52;2.68;;;2.68;;
71183;SDS011;58887;51.980;4.464;2022-08-01T02:24:28;2.95;;;2.95;;
71183;SDS011;58887;51.980;4.464;2022-08-01T02:27:01;3.28;;;3.28;;
71183;SDS011;58887;51.980;4.464;2022-08-01T02:29:34;3.02;;;3.02;;
71183;SDS011;58887;51.980;4.464;2022-08-01T02:32:07;3.18;;;3.18;;
71183;SDS011;58887;51.980;4.464;2022-08-01T02:34:39;3.43;;;3.43;;
71183;SDS011;58887;51.980;4.464;2022-08-01T02:37:07;3.35;;;3.35;;
71183;SDS011;58887;51.980;4.464;2022-08-01T02:39:35;3.89;;;3.89;;
71183;SDS011;58887;51.980;4.464;2022-08-01T02:42:04;3.79;;;3.79;;
71183;SDS011;58887;51.980;4.464;2022-08-01T02:44:35;3.55;;;3.55;;
71183;SDS011;58887;51.980;4.464;2022-08-01T02:47:04;3.84;;;3.84;;
71183;SDS011;58887;51.980;4.464;2022-08-01T02:49:31;3.73;;;3.73;;
71183;SDS011;58887;51.980;4.464;2022-08-01T02:52:10;4.09;;;4.09;;
71183;SDS011;58887;51.980;4.464;2022-08-01T02:54:39;4.03;;;4.03;;
71183;SDS011;58887;51.980;4.464;2022-08-01T02:57:08;3.86;;;3.86;;
71183;SDS011;58887;51.980;4.464;2022-08-01T02:59:36;3.82;;;3.82;;
71183;SDS011;58887;51.980;4.464;2022-08-01T03:02:04;3.54;;;3.54;;
71183;SDS011;58887;51.980;4.464;2022-08-01T03:04:35;3.30;;;3.30;;
71183;SDS011;58887;51.980;4.464;2022-08-01T03:07:04;4.10;;;4.10;;
71183;SDS011;58887;51.980;4.464;2022-08-01T03:09:35;3.13;;;3.13;;
71183;SDS011;58887;51.980;4.464;2022-08-01T03:12:06;2.90;;;2.90;;
71183;SDS011;58887;51.980;4.464;2022-08-01T03:14:38;2.51;;;2.51;;
71183;SDS011;58887;51.980;4.464;2022-08-01T03:17:07;2.33;;;2.33;;
71183;SDS011;58887;51.980;4.464;2022-08-01T03:19:35;1.97;;;1.97;;
71183;SDS011;58887;51.980;4.464;2022-08-01T03:22:04;1.90;;;1.90;;
71183;SDS011;58887;51.980;4.464;2022-08-01T03:24:35;1.86;;;1.86;;
71183;SDS011;58887;51.980;4.464;2022-08-01T03:27:04;1.50;;;1.50;;
71183;SDS011;58887;51.980;4.464;2022-08-01T03:29:31;1.23;;;1.23;;
71183;SDS011;58887;51.980;4.464;2022-08-01T03:31:59;1.04;;;1.04;;
71183;SDS011;58887;51.980;4.464;2022-08-01T03:34:26;1.14;;;1.14;;
71183;SDS011;58887;51.980;4.464;2022-08-01T03:39:40;1.15;;;1.15;;
71183;SDS011;58887;51.980;4.464;2022-08-01T03:42:14;1.00;;;1.00;;
71183;SDS011;58887;51.980;4.464;2022-08-01T03:44:47;0.97;;;0.97;;
71183;SDS011;58887;51.980;4.464;2022-08-01T03:47:18;0.89;;;0.89;;
71183;SDS011;58887;51.980;4.464;2022-08-01T03:49:50;0.93;;;0.93;;
71183;SDS011;58887;51.980;4.464;2022-08-01T03:52:18;1.00;;;1.00;;
71183;SDS011;58887;51.980;4.464;2022-08-01T03:54:49;1.05;;;1.05;;
71183;SDS011;58887;51.980;4.464;2022-08-01T03:57:19;0.91;;;0.91;;
71183;SDS011;58887;51.980;4.464;2022-08-01T03:59:46;1.01;;;1.01;;
71183;SDS011;58887;51.980;4.464;2022-08-01T04:02:12;1.03;;;1.03;;
71183;SDS011;58887;51.980;4.464;2022-08-01T04:04:40;1.29;;;1.29;;
71183;SDS011;58887;51.980;4.464;2022-08-01T04:07:20;1.24;;;1.24;;
71183;SDS011;58887;51.980;4.464;2022-08-01T04:09:50;1.33;;;1.33;;
71183;SDS011;58887;51.980;4.464;2022-08-01T04:12:16;1.35;;;1.35;;
71183;SDS011;58887;51.980;4.464;2022-08-01T04:14:42;1.39;;;1.39;;
71183;SDS011;58887;51.980;4.464;2022-08-01T04:17:07;1.37;;;1.37;;
71183;SDS011;58887;51.980;4.464;2022-08-01T04:19:33;1.45;;;1.45;;
71183;SDS011;58887;51.980;4.464;2022-08-01T04:21:58;1.56;;;1.56;;
71183;SDS011;58887;51.980;4.464;2022-08-01T04:24:25;1.66;;;1.66;;
71183;SDS011;58887;51.980;4.464;2022-08-01T04:26:55;1.91;;;1.91;;
71183;SDS011;58887;51.980;4.464;2022-08-01T04:29:25;1.62;;;1.62;;
71183;SDS011;58887;51.980;4.464;2022-08-01T04:31:54;1.66;;;1.66;;
71183;SDS011;58887;51.980;4.464;2022-08-01T04:34:22;1.87;;;1.87;;
71183;SDS011;58887;51.980;4.464;2022-08-01T04:36:54;1.66;;;1.66;;
71183;SDS011;58887;51.980;4.464;2022-08-01T04:39:21;1.52;;;1.52;;
71183;SDS011;58887;51.980;4.464;2022-08-01T04:41:52;1.48;;;1.48;;
71183;SDS011;58887;51.980;4.464;2022-08-01T04:44:22;1.75;;;1.75;;
71183;SDS011;58887;51.980;4.464;2022-08-01T04:46:48;1.59;;;1.59;;
71183;SDS011;58887;51.980;4.464;2022-08-01T04:49:19;1.65;;;1.65;;
71183;SDS011;58887;51.980;4.464;2022-08-01T04:51:52;1.81;;;1.81;;
71183;SDS011;58887;51.980;4.464;2022-08-01T04:54:24;1.67;;;1.67;;
71183;SDS011;58887;51.980;4.464;2022-08-01T04:56:50;1.73;;;1.73;;
71183;SDS011;58887;51.980;4.464;2022-08-01T04:59:16;1.61;;;1.61;;
71183;SDS011;58887;51.980;4.464;2022-08-01T05:02:00;1.70;;;1.70;;
71183;SDS011;58887;51.980;4.464;2022-08-01T05:04:25;1.56;;;1.56;;
71183;SDS011;58887;51.980;4.464;2022-08-01T05:06:51;1.67;;;1.67;;
71183;SDS011;58887;51.980;4.464;2022-08-01T05:09:16;1.71;;;1.71;;
71183;SDS011;58887;51.980;4.464;2022-08-01T05:11:41;1.65;;;1.65;;
71183;SDS011;58887;51.980;4.464;2022-08-01T05:14:07;1.49;;;1.49;;
71183;SDS011;58887;51.980;4.464;2022-08-01T05:16:32;1.51;;;1.51;;
71183;SDS011;58887;51.980;4.464;2022-08-01T05:18:58;1.38;;;1.38;;
71183;SDS011;58887;51.980;4.464;2022-08-01T05:21:23;1.35;;;1.35;;
71183;SDS011;58887;51.980;4.464;2022-08-01T05:23:48;1.50;;;1.50;;
71183;SDS011;58887;51.980;4.464;2022-08-01T05:26:14;1.42;;;1.42;;
71183;SDS011;58887;51.980;4.464;2022-08-01T05:28:39;1.43;;;1.43;;
71183;SDS011;58887;51.980;4.464;2022-08-01T05:31:05;1.40;;;1.40;;
71183;SDS011;58887;51.980;4.464;2022-08-01T05:33:30;1.55;;;1.55;;
71183;SDS011;58887;51.980;4.464;2022-08-01T05:35:56;1.59;;;1.59;;
71183;SDS011;58887;51.980;4.464;2022-08-01T05:38:21;1.74;;;1.74;;
71183;SDS011;58887;51.980;4.464;2022-08-01T05:40:47;1.70;;;1.70;;
71183;SDS011;58887;51.980;4.464;2022-08-01T05:43:12;1.81;;;1.81;;
71183;SDS011;58887;51.980;4.464;2022-08-01T05:45:38;1.77;;;1.77;;
71183;SDS011;58887;51.980;4.464;2022-08-01T05:48:03;1.70;;;1.70;;
71183;SDS011;58887;51.980;4.464;2022-08-01T05:50:29;1.98;;;1.98;;
71183;SDS011;58887;51.980;4.464;2022-08-01T05:52:54;1.66;;;1.66;;
71183;SDS011;58887;51.980;4.464;2022-08-01T05:55:20;1.76;;;1.76;;
71183;SDS011;58887;51.980;4.464;2022-08-01T05:57:45;1.77;;;1.77;;
71183;SDS011;58887;51.980;4.464;2022-08-01T06:00:11;1.78;;;1.78;;
71183;SDS011;58887;51.980;4.464;2022-08-01T06:02:41;1.83;;;1.83;;
71183;SDS011;58887;51.980;4.464;2022-08-01T06:05:08;1.63;;;1.63;;
71183;SDS011;58887;51.980;4.464;2022-08-01T06:07:34;1.83;;;1.83;;
71183;SDS011;58887;51.980;4.464;2022-08-01T06:09:59;1.93;;;1.93;;
71183;SDS011;58887;51.980;4.464;2022-08-01T06:12:25;1.99;;;1.99;;
71183;SDS011;58887;51.980;4.464;2022-08-01T06:14:50;2.03;;;2.03;;
71183;SDS011;58887;51.980;4.464;2022-08-01T06:17:16;2.01;;;2.01;;
71183;SDS011;58887;51.980;4.464;2022-08-01T06:19:41;2.31;;;2.31;;
71183;SDS011;58887;51.980;4.464;2022-08-01T06:22:06;2.09;;;2.09;;
71183;SDS011;58887;51.980;4.464;2022-08-01T06:24:32;2.24;;;2.24;;
71183;SDS011;58887;51.980;4.464;2022-08-01T06:26:57;2.21;;;2.21;;
71183;SDS011;58887;51.980;4.464;2022-08-01T06:29:23;2.55;;;2.55;;
71183;SDS011;58887;51.980;4.464;2022-08-01T06:31:49;2.63;;;2.63;;
71183;SDS011;58887;51.980;4.464;2022-08-01T06:34:14;2.93;;;2.93;;
71183;SDS011;58887;51.980;4.464;2022-08-01T06:36:40;2.80;;;2.80;;
71183;SDS011;58887;51.980;4.464;2022-08-01T06:39:05;2.81;;;2.81;;
71183;SDS011;58887;51.980;4.464;2022-08-01T06:41:31;2.71;;;2.71;;
71183;SDS011;58887;51.980;4.464;2022-08-01T06:43:57;2.50;;;2.50;;
71183;SDS011;58887;51.980;4.464;2022-08-01T06:46:24;2.95;;;2.95;;
71183;SDS011;58887;51.980;4.464;2022-08-01T06:48:50;2.88;;;2.88;;
71183;SDS011;58887;51.980;4.464;2022-08-01T06:51:15;3.14;;;3.14;;
71183;SDS011;58887;51.980;4.464;2022-08-01T06:53:44;3.55;;;3.55;;
71183;SDS011;58887;51.980;4.464;2022-08-01T06:56:10;3.55;;;3.55;;
71183;SDS011;58887;51.980;4.464;2022-08-01T06:58:36;3.76;;;3.76;;
71183;SDS011;58887;51.980;4.464;2022-08-01T07:01:05;3.65;;;3.65;;
71183;SDS011;58887;51.980;4.464;2022-08-01T07:03:32;3.62;;;3.62;;
71183;SDS011;58887;51.980;4.464;2022-08-01T07:05:57;3.54;;;3.54;;
71183;SDS011;58887;51.980;4.464;2022-08-01T07:08:23;3.66;;;3.66;;
71183;SDS011;58887;51.980;4.464;2022-08-01T07:10:48;3.63;;;3.63;;
71183;SDS011;58887;51.980;4.464;2022-08-01T07:13:14;3.47;;;3.47;;
71183;SDS011;58887;51.980;4.464;2022-08-01T07:15:45;3.61;;;3.61;;
71183;SDS011;58887;51.980;4.464;2022-08-01T07:18:11;3.98;;;3.98;;
71183;SDS011;58887;51.980;4.464;2022-08-01T07:20:37;4.07;;;4.07;;
71183;SDS011;58887;51.980;4.464;2022-08-01T07:23:02;4.13;;;4.13;;
71183;SDS011;58887;51.980;4.464;2022-08-01T07:25:28;4.63;;;4.63;;
71183;SDS011;58887;51.980;4.464;2022-08-01T07:27:53;4.35;;;4.35;;
71183;SDS011;58887;51.980;4.464;2022-08-01T07:30:19;4.72;;;4.72;;
71183;SDS011;58887;51.980;4.464;2022-08-01T07:32:45;5.04;;;5.04;;
71183;SDS011;58887;51.980;4.464;2022-08-01T07:35:10;4.90;;;4.90;;
71183;SDS011;58887;51.980;4.464;2022-08-01T07:37:36;4.50;;;4.50;;
71183;SDS011;58887;51.980;4.464;2022-08-01T07:40:02;4.82;;;4.82;;
71183;SDS011;58887;51.980;4.464;2022-08-01T07:42:29;4.71;;;4.71;;
71183;SDS011;58887;51.980;4.464;2022-08-01T07:44:55;4.72;;;4.72;;
71183;SDS011;58887;51.980;4.464;2022-08-01T07:47:24;4.55;;;4.55;;
71183;SDS011;58887;51.980;4.464;2022-08-01T07:49:50;4.41;;;4.41;;
71183;SDS011;58887;51.980;4.464;2022-08-01T07:52:16;4.71;;;4.71;;
71183;SDS011;58887;51.980;4.464;2022-08-01T07:54:41;4.48;;;4.48;;
71183;SDS011;58887;51.980;4.464;2022-08-01T07:57:07;4.64;;;4.64;;
71183;SDS011;58887;51.980;4.464;2022-08-01T07:59:32;4.35;;;4.30;;
71183;SDS011;58887;51.980;4.464;2022-08-01T08:01:59;4.95;;;4.66;;
71183;SDS011;58887;51.980;4.464;2022-08-01T08:04:25;4.84;;;4.48;;
71183;SDS011;58887;51.980;4.464;2022-08-01T08:06:51;4.19;;;4.18;;
71183;SDS011;58887;51.980;4.464;2022-08-01T08:09:18;4.32;;;4.25;;
71183;SDS011;58887;51.980;4.464;2022-08-01T08:11:44;4.08;;;4.00;;
71183;SDS011;58887;51.980;4.464;2022-08-01T08:14:11;4.62;;;4.39;;
71183;SDS011;58887;51.980;4.464;2022-08-01T08:16:37;4.23;;;3.91;;
71183;SDS011;58887;51.980;4.464;2022-08-01T08:19:03;3.93;;;3.82;;
71183;SDS011;58887;51.980;4.464;2022-08-01T08:21:28;3.74;;;3.74;;
71183;SDS011;58887;51.980;4.464;2022-08-01T08:23:55;3.67;;;3.59;;
71183;SDS011;58887;51.980;4.464;2022-08-01T08:26:39;3.50;;;3.44;;
71183;SDS011;58887;51.980;4.464;2022-08-01T08:29:05;3.51;;;3.51;;
71183;SDS011;58887;51.980;4.464;2022-08-01T08:31:30;3.77;;;3.76;;
71183;SDS011;58887;51.980;4.464;2022-08-01T08:33:56;3.40;;;3.39;;
71183;SDS011;58887;51.980;4.464;2022-08-01T08:36:22;3.36;;;3.31;;
71183;SDS011;58887;51.980;4.464;2022-08-01T08:38:47;3.38;;;3.38;;
71183;SDS011;58887;51.980;4.464;2022-08-01T08:41:13;3.28;;;3.25;;
71183;SDS011;58887;51.980;4.464;2022-08-01T08:43:39;3.61;;;3.42;;
71183;SDS011;58887;51.980;4.464;2022-08-01T08:46:05;3.46;;;3.31;;
71183;SDS011;58887;51.980;4.464;2022-08-01T08:48:34;3.56;;;3.44;;
71183;SDS011;58887;51.980;4.464;2022-08-01T08:51:00;3.76;;;3.60;;
71183;SDS011;58887;51.980;4.464;2022-08-01T08:53:27;3.67;;;3.48;;
71183;SDS011;58887;51.980;4.464;2022-08-01T08:55:52;3.74;;;3.47;;
71183;SDS011;58887;51.980;4.464;2022-08-01T08:58:22;3.83;;;3.54;;
71183;SDS011;58887;51.980;4.464;2022-08-01T09:00:51;3.30;;;3.16;;
71183;SDS011;58887;51.980;4.464;2022-08-01T09:03:21;3.20;;;3.12;;
71183;SDS011;58887;51.980;4.464;2022-08-01T09:05:46;3.25;;;2.99;;
71183;SDS011;58887;51.980;4.464;2022-08-01T09:08:12;3.09;;;2.89;;
71183;SDS011;58887;51.980;4.464;2022-08-01T09:10:37;3.10;;;2.92;;
71183;SDS011;58887;51.980;4.464;2022-08-01T09:13:04;3.04;;;2.86;;
71183;SDS011;58887;51.980;4.464;2022-08-01T09:16:04;2.73;;;2.71;;
71183;SDS011;58887;51.980;4.464;2022-08-01T09:26:17;2.84;;;2.68;;
71183;SDS011;58887;51.980;4.464;2022-08-01T09:28:45;3.25;;;3.00;;
71183;SDS011;58887;51.980;4.464;2022-08-01T09:31:15;2.98;;;2.87;;
71183;SDS011;58887;51.980;4.464;2022-08-01T09:36:17;3.01;;;3.01;;
71183;SDS011;58887;51.980;4.464;2022-08-01T09:38:43;2.91;;;2.91;;
71183;SDS011;58887;51.980;4.464;2022-08-01T09:41:08;2.69;;;2.69;;
71183;SDS011;58887;51.980;4.464;2022-08-01T09:43:36;3.10;;;3.06;;
71183;SDS011;58887;51.980;4.464;2022-08-01T09:46:09;3.23;;;3.11;;
71183;SDS011;58887;51.980;4.464;2022-08-01T09:48:39;3.01;;;2.86;;
71183;SDS011;58887;51.980;4.464;2022-08-01T09:51:34;3.49;;;3.35;;
71183;SDS011;58887;51.980;4.464;2022-08-01T09:54:02;2.99;;;2.92;;
71183;SDS011;58887;51.980;4.464;2022-08-01T09:56:37;2.56;;;2.56;;
71183;SDS011;58887;51.980;4.464;2022-08-01T09:59:04;2.09;;;2.09;;
71183;SDS011;58887;51.980;4.464;2022-08-01T10:01:47;2.21;;;2.13;;
71183;SDS011;58887;51.980;4.464;2022-08-01T10:04:14;2.12;;;2.00;;
71183;SDS011;58887;51.980;4.464;2022-08-01T10:06:43;2.10;;;1.97;;
71183;SDS011;58887;51.980;4.464;2022-08-01T10:09:14;2.34;;;2.17;;
71183;SDS011;58887;51.980;4.464;2022-08-01T10:11:41;2.30;;;2.12;;
71183;SDS011;58887;51.980;4.464;2022-08-01T10:14:08;2.36;;;2.14;;
71183;SDS011;58887;51.980;4.464;2022-08-01T10:16:35;2.54;;;2.25;;
71183;SDS011;58887;51.980;4.464;2022-08-01T10:19:05;3.00;;;2.61;;
71183;SDS011;58887;51.980;4.464;2022-08-01T10:21:33;2.73;;;2.39;;
71183;SDS011;58887;51.980;4.464;2022-08-01T10:23:59;2.49;;;2.24;;
71183;SDS011;58887;51.980;4.464;2022-08-01T10:26:29;2.41;;;2.17;;
71183;SDS011;58887;51.980;4.464;2022-08-01T10:28:57;2.56;;;2.33;;
71183;SDS011;58887;51.980;4.464;2022-08-01T10:31:23;2.62;;;2.34;;
71183;SDS011;58887;51.980;4.464;2022-08-01T10:33:49;2.58;;;2.28;;
71183;SDS011;58887;51.980;4.464;2022-08-01T10:36:18;2.75;;;2.42;;
71183;SDS011;58887;51.980;4.464;2022-08-01T10:38:45;2.67;;;2.28;;
71183;SDS011;58887;51.980;4.464;2022-08-01T10:41:13;2.67;;;2.32;;
71183;SDS011;58887;51.980;4.464;2022-08-01T10:43:42;2.33;;;2.07;;
71183;SDS011;58887;51.980;4.464;2022-08-01T10:46:08;2.42;;;2.17;;
71183;SDS011;58887;51.980;4.464;2022-08-01T10:48:44;2.40;;;2.16;;
71183;SDS011;58887;51.980;4.464;2022-08-01T10:51:22;2.69;;;2.38;;
71183;SDS011;58887;51.980;4.464;2022-08-01T10:53:51;2.60;;;2.27;;
71183;SDS011;58887;51.980;4.464;2022-08-01T10:56:18;2.53;;;2.24;;
71183;SDS011;58887;51.980;4.464;2022-08-01T10:58:45;2.33;;;2.07;;
71183;SDS011;58887;51.980;4.464;2022-08-01T11:03:40;2.24;;;2.03;;
71183;SDS011;58887;51.980;4.464;2022-08-01T11:06:52;2.29;;;2.05;;
71183;SDS011;58887;51.980;4.464;2022-08-01T11:09:28;2.25;;;2.00;;
71183;SDS011;58887;51.980;4.464;2022-08-01T11:14:27;2.49;;;2.26;;
71183;SDS011;58887;51.980;4.464;2022-08-01T11:16:53;2.10;;;1.89;;
71183;SDS011;58887;51.980;4.464;2022-08-01T11:19:18;2.23;;;1.98;;
71183;SDS011;58887;51.980;4.464;2022-08-01T11:29:40;1.49;;;1.47;;
71183;SDS011;58887;51.980;4.464;2022-08-01T11:32:26;2.07;;;1.94;;
71183;SDS011;58887;51.980;4.464;2022-08-01T11:34:52;2.15;;;1.98;;
71183;SDS011;58887;51.980;4.464;2022-08-01T11:37:26;2.00;;;1.87;;
71183;SDS011;58887;51.980;4.464;2022-08-01T11:46:12;1.88;;;1.77;;
71183;SDS011;58887;51.980;4.464;2022-08-01T11:48:31;2.02;;;1.87;;
71183;SDS011;58887;51.980;4.464;2022-08-01T11:50:57;2.03;;;1.84;;
71183;SDS011;58887;51.980;4.464;2022-08-01T11:53:22;2.01;;;1.82;;
71183;SDS011;58887;51.980;4.464;2022-08-01T11:55:51;2.10;;;1.96;;
71183;SDS011;58887;51.980;4.464;2022-08-01T11:58:25;2.13;;;2.02;;
71183;SDS011;58887;51.980;4.464;2022-08-01T12:00:51;2.00;;;1.99;;
71183;SDS011;58887;51.980;4.464;2022-08-01T12:03:23;1.86;;;1.86;;
71183;SDS011;58887;51.980;4.464;2022-08-01T12:05:54;2.08;;;2.03;;
71183;SDS011;58887;51.980;4.464;2022-08-01T12:08:30;2.32;;;2.17;;
71183;SDS011;58887;51.980;4.464;2022-08-01T12:11:02;1.95;;;1.83;;
71183;SDS011;58887;51.980;4.464;2022-08-01T12:13:39;1.72;;;1.60;;
71183;SDS011;58887;51.980;4.464;2022-08-01T12:16:07;1.33;;;1.33;;
71183;SDS011;58887;51.980;4.464;2022-08-01T12:18:37;1.46;;;1.46;;
71183;SDS011;58887;51.980;4.464;2022-08-01T12:21:07;1.65;;;1.65;;
71183;SDS011;58887;51.980;4.464;2022-08-01T12:23:33;1.41;;;1.41;;
71183;SDS011;58887;51.980;4.464;2022-08-01T12:25:59;1.53;;;1.53;;
71183;SDS011;58887;51.980;4.464;2022-08-01T12:28:25;1.79;;;1.79;;
71183;SDS011;58887;51.980;4.464;2022-08-01T12:30:51;1.57;;;1.57;;
71183;SDS011;58887;51.980;4.464;2022-08-01T12:33:17;1.55;;;1.54;;
71183;SDS011;58887;51.980;4.464;2022-08-01T12:35:44;1.91;;;1.77;;
71183;SDS011;58887;51.980;4.464;2022-08-01T12:38:14;2.05;;;1.88;;
71183;SDS011;58887;51.980;4.464;2022-08-01T12:40:45;2.05;;;1.91;;
71183;SDS011;58887;51.980;4.464;2022-08-01T12:43:19;1.87;;;1.75;;
71183;SDS011;58887;51.980;4.464;2022-08-01T12:45:47;1.70;;;1.67;;
71183;SDS011;58887;51.980;4.464;2022-08-01T12:48:16;1.67;;;1.67;;
71183;SDS011;58887;51.980;4.464;2022-08-01T12:50:44;1.58;;;1.58;;
71183;SDS011;58887;51.980;4.464;2022-08-01T12:53:12;1.55;;;1.55;;
71183;SDS011;58887;51.980;4.464;2022-08-01T12:55:55;1.52;;;1.52;;
71183;SDS011;58887;51.980;4.464;2022-08-01T12:58:21;1.49;;;1.49;;
71183;SDS011;58887;51.980;4.464;2022-08-01T13:00:48;1.78;;;1.78;;
71183;SDS011;58887;51.980;4.464;2022-08-01T13:03:15;1.36;;;1.34;;
71183;SDS011;58887;51.980;4.464;2022-08-01T13:05:50;1.38;;;1.38;;
71183;SDS011;58887;51.980;4.464;2022-08-01T13:08:38;1.35;;;1.34;;
71183;SDS011;58887;51.980;4.464;2022-08-01T13:11:05;1.80;;;1.67;;
71183;SDS011;58887;51.980;4.464;2022-08-01T13:13:37;2.17;;;2.06;;
71183;SDS011;58887;51.980;4.464;2022-08-01T13:16:05;1.99;;;1.80;;
71183;SDS011;58887;51.980;4.464;2022-08-01T13:18:32;1.78;;;1.63;;
71183;SDS011;58887;51.980;4.464;2022-08-01T13:23:39;2.32;;;2.12;;
71183;SDS011;58887;51.980;4.464;2022-08-01T13:26:05;1.99;;;1.82;;
71183;SDS011;58887;51.980;4.464;2022-08-01T13:28:31;2.26;;;2.06;;
71183;SDS011;58887;51.980;4.464;2022-08-01T13:33:39;2.13;;;1.97;;
71183;SDS011;58887;51.980;4.464;2022-08-01T13:36:09;2.22;;;2.11;;
71183;SDS011;58887;51.980;4.464;2022-08-01T13:38:35;2.03;;;2.03;;
71183;SDS011;58887;51.980;4.464;2022-08-01T13:41:20;2.27;;;2.27;;
71183;SDS011;58887;51.980;4.464;2022-08-01T13:43:45;2.01;;;2.01;;
71183;SDS011;58887;51.980;4.464;2022-08-01T13:46:11;1.93;;;1.93;;
71183;SDS011;58887;51.980;4.464;2022-08-01T13:48:36;1.69;;;1.69;;
71183;SDS011;58887;51.980;4.464;2022-08-01T13:51:02;1.88;;;1.82;;
71183;SDS011;58887;51.980;4.464;2022-08-01T13:53:28;1.83;;;1.83;;
71183;SDS011;58887;51.980;4.464;2022-08-01T13:55:53;1.70;;;1.70;;
71183;SDS011;58887;51.980;4.464;2022-08-01T13:58:20;1.77;;;1.77;;
71183;SDS011;58887;51.980;4.464;2022-08-01T14:00:45;1.90;;;1.90;;
71183;SDS011;58887;51.980;4.464;2022-08-01T14:03:11;2.05;;;2.05;;
71183;SDS011;58887;51.980;4.464;2022-08-01T14:05:37;1.72;;;1.72;;
71183;SDS011;58887;51.980;4.464;2022-08-01T14:08:03;1.74;;;1.74;;
71183;SDS011;58887;51.980;4.464;2022-08-01T14:10:28;1.77;;;1.77;;
71183;SDS011;58887;51.980;4.464;2022-08-01T14:12:57;1.68;;;1.68;;
71183;SDS011;58887;51.980;4.464;2022-08-01T14:15:23;1.82;;;1.82;;
71183;SDS011;58887;51.980;4.464;2022-08-01T14:17:50;1.72;;;1.72;;
71183;SDS011;58887;51.980;4.464;2022-08-01T14:20:15;1.70;;;1.70;;
71183;SDS011;58887;51.980;4.464;2022-08-01T14:22:45;1.74;;;1.74;;
71183;SDS011;58887;51.980;4.464;2022-08-01T14:25:11;1.83;;;1.83;;
71183;SDS011;58887;51.980;4.464;2022-08-01T14:27:37;1.81;;;1.81;;
71183;SDS011;58887;51.980;4.464;2022-08-01T14:30:05;1.50;;;1.50;;
71183;SDS011;58887;51.980;4.464;2022-08-01T14:32:32;1.67;;;1.67;;
71183;SDS011;58887;51.980;4.464;2022-08-01T14:34:58;1.55;;;1.55;;
71183;SDS011;58887;51.980;4.464;2022-08-01T14:37:24;1.66;;;1.61;;
71183;SDS011;58887;51.980;4.464;2022-08-01T14:39:50;1.73;;;1.59;;
71183;SDS011;58887;51.980;4.464;2022-08-01T14:42:15;1.93;;;1.83;;
71183;SDS011;58887;51.980;4.464;2022-08-01T14:44:41;1.78;;;1.72;;
71183;SDS011;58887;51.980;4.464;2022-08-01T14:47:06;1.86;;;1.81;;
71183;SDS011;58887;51.980;4.464;2022-08-01T14:49:32;1.67;;;1.61;;
71183;SDS011;58887;51.980;4.464;2022-08-01T14:51:57;1.75;;;1.75;;
71183;SDS011;58887;51.980;4.464;2022-08-01T14:54:22;1.93;;;1.85;;
71183;SDS011;58887;51.980;4.464;2022-08-01T14:56:48;1.72;;;1.71;;
71183;SDS011;58887;51.980;4.464;2022-08-01T14:59:14;1.76;;;1.75;;
71183;SDS011;58887;51.980;4.464;2022-08-01T15:01:39;1.59;;;1.58;;
71183;SDS011;58887;51.980;4.464;2022-08-01T15:04:05;1.57;;;1.56;;
71183;SDS011;58887;51.980;4.464;2022-08-01T15:06:31;1.62;;;1.58;;
71183;SDS011;58887;51.980;4.464;2022-08-01T15:08:56;1.70;;;1.70;;
71183;SDS011;58887;51.980;4.464;2022-08-01T15:11:22;4.41;;;3.89;;
71183;SDS011;58887;51.980;4.464;2022-08-01T15:13:48;2.29;;;1.93;;
71183;SDS011;58887;51.980;4.464;2022-08-01T15:16:33;2.01;;;1.77;;
71183;SDS011;58887;51.980;4.464;2022-08-01T15:18:58;2.23;;;2.00;;
71183;SDS011;58887;51.980;4.464;2022-08-01T15:21:24;2.09;;;1.90;;
71183;SDS011;58887;51.980;4.464;2022-08-01T15:23:49;1.65;;;1.57;;
71183;SDS011;58887;51.980;4.464;2022-08-01T15:26:15;1.74;;;1.68;;
71183;SDS011;58887;51.980;4.464;2022-08-01T15:28:40;1.82;;;1.81;;
71183;SDS011;58887;51.980;4.464;2022-08-01T15:31:06;1.90;;;1.90;;
71183;SDS011;58887;51.980;4.464;2022-08-01T15:33:31;1.84;;;1.83;;
71183;SDS011;58887;51.980;4.464;2022-08-01T15:35:56;1.87;;;1.87;;
71183;SDS011;58887;51.980;4.464;2022-08-01T15:38:22;1.99;;;1.99;;
71183;SDS011;58887;51.980;4.464;2022-08-01T15:40:47;1.61;;;1.61;;